sensor_id;sensor_type;location;lat;lon;timestamp;P1;durP1;ratioP1;P2;durP2;ratioP2
15155;SDS011;7678;50.058;8.306;2022-11-09T00:01:23;7.33;;;5.30;;
15155;SDS011;7678;50.058;8.306;2022-11-09T00:03:53;8.93;;;5.63;;
15155;SDS011;7678;50.058;8.306;2022-11-09T00:06:22;10.50;;;6.30;;
15155;SDS011;7678;50.058;8.306;2022-11-09T00:08:51;7.97;;;6.30;;
15155;SDS011;7678;50.058;8.306;2022-11-09T00:11:21;8.77;;;5.70;;
15155;SDS011;7678;50.058;8.306;2022-11-09T00:13:49;8.93;;;6.17;;
15155;SDS011;7678;50.058;8.306;2022-11-09T00:16:17;11.50;;;5.77;;
15155;SDS011;7678;50.058;8.306;2022-11-09T00:18:46;10.17;;;7.33;;
15155;SDS011;7678;50.058;8.306;2022-11-09T00:21:15;11.67;;;6.73;;
15155;SDS011;7678;50.058;8.306;2022-11-09T00:23:45;9.27;;;6.70;;
15155;SDS011;7678;50.058;8.306;2022-11-09T00:26:16;7.50;;;6.67;;
15155;SDS011;7678;50.058;8.306;2022-11-09T00:28:51;9.80;;;5.23;;
15155;SDS011;7678;50.058;8.306;2022-11-09T00:31:20;9.47;;;5.47;;
15155;SDS011;7678;50.058;8.306;2022-11-09T00:33:49;9.13;;;4.97;;
15155;SDS011;7678;50.058;8.306;2022-11-09T00:36:18;9.10;;;5.00;;
15155;SDS011;7678;50.058;8.306;2022-11-09T00:38:47;11.13;;;5.73;;
15155;SDS011;7678;50.058;8.306;2022-11-09T00:41:17;6.63;;;5.33;;
15155;SDS011;7678;50.058;8.306;2022-11-09T00:43:45;8.17;;;5.63;;
15155;SDS011;7678;50.058;8.306;2022-11-09T00:46:16;8.97;;;5.50;;
15155;SDS011;7678;50.058;8.306;2022-11-09T00:48:45;11.23;;;5.63;;
15155;SDS011;7678;50.058;8.306;2022-11-09T00:51:13;9.47;;;6.10;;
15155;SDS011;7678;50.058;8.306;2022-11-09T00:53:41;8.93;;;5.73;;
15155;SDS011;7678;50.058;8.306;2022-11-09T00:56:12;9.90;;;6.00;;
15155;SDS011;7678;50.058;8.306;2022-11-09T00:58:40;10.43;;;5.77;;
15155;SDS011;7678;50.058;8.306;2022-11-09T01:01:09;10.33;;;6.43;;
15155;SDS011;7678;50.058;8.306;2022-11-09T01:03:40;8.93;;;6.07;;
15155;SDS011;7678;50.058;8.306;2022-11-09T01:06:08;6.67;;;5.43;;
15155;SDS011;7678;50.058;8.306;2022-11-09T01:08:41;9.07;;;6.00;;
15155;SDS011;7678;50.058;8.306;2022-11-09T01:11:09;11.30;;;6.07;;
15155;SDS011;7678;50.058;8.306;2022-11-09T01:13:38;7.90;;;6.07;;
15155;SDS011;7678;50.058;8.306;2022-11-09T01:16:07;11.63;;;6.07;;
15155;SDS011;7678;50.058;8.306;2022-11-09T01:18:37;8.47;;;5.90;;
15155;SDS011;7678;50.058;8.306;2022-11-09T01:21:11;7.80;;;5.60;;
15155;SDS011;7678;50.058;8.306;2022-11-09T01:23:40;7.20;;;5.80;;
15155;SDS011;7678;50.058;8.306;2022-11-09T01:26:12;8.87;;;5.77;;
15155;SDS011;7678;50.058;8.306;2022-11-09T01:28:42;8.13;;;5.90;;
15155;SDS011;7678;50.058;8.306;2022-11-09T01:31:11;8.77;;;5.83;;
15155;SDS011;7678;50.058;8.306;2022-11-09T01:33:41;7.90;;;5.80;;
15155;SDS011;7678;50.058;8.306;2022-11-09T01:36:11;7.67;;;5.83;;
15155;SDS011;7678;50.058;8.306;2022-11-09T01:38:41;9.43;;;5.77;;
15155;SDS011;7678;50.058;8.306;2022-11-09T01:41:11;11.90;;;6.17;;
15155;SDS011;7678;50.058;8.306;2022-11-09T01:43:40;9.17;;;6.50;;
15155;SDS011;7678;50.058;8.306;2022-11-09T01:46:12;9.87;;;6.70;;
15155;SDS011;7678;50.058;8.306;2022-11-09T01:48:46;9.20;;;6.80;;
15155;SDS011;7678;50.058;8.306;2022-11-09T01:51:23;9.93;;;7.00;;
15155;SDS011;7678;50.058;8.306;2022-11-09T01:53:57;10.90;;;6.90;;
15155;SDS011;7678;50.058;8.306;2022-11-09T01:56:28;11.97;;;8.17;;
15155;SDS011;7678;50.058;8.306;2022-11-09T01:58:58;13.90;;;7.03;;
15155;SDS011;7678;50.058;8.306;2022-11-09T02:01:29;9.80;;;7.87;;
15155;SDS011;7678;50.058;8.306;2022-11-09T02:04:00;8.97;;;7.60;;
15155;SDS011;7678;50.058;8.306;2022-11-09T02:06:34;8.93;;;7.63;;
15155;SDS011;7678;50.058;8.306;2022-11-09T02:09:08;11.60;;;7.93;;
15155;SDS011;7678;50.058;8.306;2022-11-09T02:11:38;9.30;;;8.30;;
15155;SDS011;7678;50.058;8.306;2022-11-09T02:14:07;11.87;;;8.80;;
15155;SDS011;7678;50.058;8.306;2022-11-09T02:16:36;11.77;;;8.63;;
15155;SDS011;7678;50.058;8.306;2022-11-09T02:19:06;13.40;;;8.67;;
15155;SDS011;7678;50.058;8.306;2022-11-09T02:21:36;15.13;;;8.77;;
15155;SDS011;7678;50.058;8.306;2022-11-09T02:24:05;13.33;;;8.77;;
15155;SDS011;7678;50.058;8.306;2022-11-09T02:26:35;9.20;;;8.27;;
15155;SDS011;7678;50.058;8.306;2022-11-09T02:29:08;11.43;;;8.90;;
15155;SDS011;7678;50.058;8.306;2022-11-09T02:31:40;9.97;;;8.17;;
15155;SDS011;7678;50.058;8.306;2022-11-09T02:34:15;9.73;;;8.50;;
15155;SDS011;7678;50.058;8.306;2022-11-09T02:36:45;12.67;;;8.97;;
15155;SDS011;7678;50.058;8.306;2022-11-09T02:39:15;11.20;;;9.30;;
15155;SDS011;7678;50.058;8.306;2022-11-09T02:41:46;11.87;;;9.30;;
15155;SDS011;7678;50.058;8.306;2022-11-09T02:44:21;11.13;;;8.77;;
15155;SDS011;7678;50.058;8.306;2022-11-09T02:46:51;13.87;;;9.87;;
15155;SDS011;7678;50.058;8.306;2022-11-09T02:49:19;14.83;;;9.93;;
15155;SDS011;7678;50.058;8.306;2022-11-09T02:51:51;12.10;;;10.17;;
15155;SDS011;7678;50.058;8.306;2022-11-09T02:54:19;12.53;;;10.20;;
15155;SDS011;7678;50.058;8.306;2022-11-09T02:56:47;13.73;;;11.57;;
15155;SDS011;7678;50.058;8.306;2022-11-09T02:59:15;16.43;;;11.23;;
15155;SDS011;7678;50.058;8.306;2022-11-09T03:01:43;14.30;;;11.83;;
15155;SDS011;7678;50.058;8.306;2022-11-09T03:04:14;14.57;;;12.13;;
15155;SDS011;7678;50.058;8.306;2022-11-09T03:06:42;14.10;;;12.33;;
15155;SDS011;7678;50.058;8.306;2022-11-09T03:09:12;16.93;;;12.60;;
15155;SDS011;7678;50.058;8.306;2022-11-09T03:11:40;17.37;;;13.23;;
15155;SDS011;7678;50.058;8.306;2022-11-09T03:14:09;16.83;;;12.60;;
15155;SDS011;7678;50.058;8.306;2022-11-09T03:16:37;17.83;;;13.03;;
15155;SDS011;7678;50.058;8.306;2022-11-09T03:19:05;17.33;;;12.50;;
15155;SDS011;7678;50.058;8.306;2022-11-09T03:21:35;14.03;;;12.30;;
15155;SDS011;7678;50.058;8.306;2022-11-09T03:24:03;15.27;;;12.23;;
15155;SDS011;7678;50.058;8.306;2022-11-09T03:26:36;17.30;;;12.67;;
15155;SDS011;7678;50.058;8.306;2022-11-09T03:29:04;19.63;;;13.93;;
15155;SDS011;7678;50.058;8.306;2022-11-09T03:31:32;17.73;;;13.70;;
15155;SDS011;7678;50.058;8.306;2022-11-09T03:34:00;15.63;;;13.00;;
15155;SDS011;7678;50.058;8.306;2022-11-09T03:36:28;15.60;;;11.37;;
15155;SDS011;7678;50.058;8.306;2022-11-09T03:38:56;15.00;;;12.73;;
15155;SDS011;7678;50.058;8.306;2022-11-09T03:41:24;15.30;;;13.37;;
15155;SDS011;7678;50.058;8.306;2022-11-09T03:43:54;16.13;;;13.43;;
15155;SDS011;7678;50.058;8.306;2022-11-09T03:46:22;17.57;;;13.37;;
15155;SDS011;7678;50.058;8.306;2022-11-09T03:48:52;17.37;;;13.13;;
15155;SDS011;7678;50.058;8.306;2022-11-09T03:51:20;18.63;;;13.73;;
15155;SDS011;7678;50.058;8.306;2022-11-09T03:53:48;15.17;;;12.37;;
15155;SDS011;7678;50.058;8.306;2022-11-09T03:56:16;16.50;;;11.20;;
15155;SDS011;7678;50.058;8.306;2022-11-09T03:58:44;12.27;;;10.97;;
15155;SDS011;7678;50.058;8.306;2022-11-09T04:01:13;13.47;;;11.60;;
15155;SDS011;7678;50.058;8.306;2022-11-09T04:03:41;14.37;;;11.37;;
15155;SDS011;7678;50.058;8.306;2022-11-09T04:06:09;15.63;;;12.03;;
15155;SDS011;7678;50.058;8.306;2022-11-09T04:08:37;17.17;;;12.10;;
15155;SDS011;7678;50.058;8.306;2022-11-09T04:11:07;17.70;;;12.83;;
15155;SDS011;7678;50.058;8.306;2022-11-09T04:13:37;14.60;;;13.10;;
15155;SDS011;7678;50.058;8.306;2022-11-09T04:16:06;18.53;;;13.47;;
15155;SDS011;7678;50.058;8.306;2022-11-09T04:18:36;21.00;;;14.90;;
15155;SDS011;7678;50.058;8.306;2022-11-09T04:21:06;18.03;;;13.50;;
15155;SDS011;7678;50.058;8.306;2022-11-09T04:23:37;18.10;;;15.67;;
15155;SDS011;7678;50.058;8.306;2022-11-09T04:26:05;19.57;;;15.63;;
15155;SDS011;7678;50.058;8.306;2022-11-09T04:28:33;22.70;;;15.47;;
15155;SDS011;7678;50.058;8.306;2022-11-09T04:31:01;20.17;;;15.33;;
15155;SDS011;7678;50.058;8.306;2022-11-09T04:33:29;21.13;;;16.80;;
15155;SDS011;7678;50.058;8.306;2022-11-09T04:36:01;21.67;;;17.40;;
15155;SDS011;7678;50.058;8.306;2022-11-09T04:38:29;22.17;;;16.77;;
15155;SDS011;7678;50.058;8.306;2022-11-09T04:41:01;23.47;;;18.97;;
15155;SDS011;7678;50.058;8.306;2022-11-09T04:43:31;23.97;;;20.07;;
15155;SDS011;7678;50.058;8.306;2022-11-09T04:45:59;25.67;;;20.53;;
15155;SDS011;7678;50.058;8.306;2022-11-09T04:48:28;30.53;;;22.27;;
15155;SDS011;7678;50.058;8.306;2022-11-09T04:50:59;26.60;;;20.93;;
15155;SDS011;7678;50.058;8.306;2022-11-09T04:53:29;30.07;;;22.77;;
15155;SDS011;7678;50.058;8.306;2022-11-09T04:55:58;29.07;;;22.17;;
15155;SDS011;7678;50.058;8.306;2022-11-09T04:58:26;32.07;;;22.17;;
15155;SDS011;7678;50.058;8.306;2022-11-09T05:00:54;36.80;;;24.97;;
15155;SDS011;7678;50.058;8.306;2022-11-09T05:03:28;33.23;;;22.77;;
15155;SDS011;7678;50.058;8.306;2022-11-09T05:05:56;32.63;;;23.57;;
15155;SDS011;7678;50.058;8.306;2022-11-09T05:08:24;38.60;;;26.37;;
15155;SDS011;7678;50.058;8.306;2022-11-09T05:10:56;38.47;;;26.90;;
15155;SDS011;7678;50.058;8.306;2022-11-09T05:13:24;37.43;;;27.50;;
15155;SDS011;7678;50.058;8.306;2022-11-09T05:15:52;34.50;;;26.47;;
15155;SDS011;7678;50.058;8.306;2022-11-09T05:18:19;36.73;;;26.50;;
15155;SDS011;7678;50.058;8.306;2022-11-09T05:20:47;37.00;;;26.73;;
15155;SDS011;7678;50.058;8.306;2022-11-09T05:23:15;35.17;;;26.73;;
15155;SDS011;7678;50.058;8.306;2022-11-09T05:26:14;32.53;;;25.10;;
15155;SDS011;7678;50.058;8.306;2022-11-09T05:28:43;38.93;;;26.57;;
15155;SDS011;7678;50.058;8.306;2022-11-09T05:31:11;38.53;;;25.90;;
15155;SDS011;7678;50.058;8.306;2022-11-09T05:33:39;32.23;;;24.87;;
15155;SDS011;7678;50.058;8.306;2022-11-09T05:36:07;35.27;;;25.70;;
15155;SDS011;7678;50.058;8.306;2022-11-09T05:38:38;35.40;;;25.03;;
15155;SDS011;7678;50.058;8.306;2022-11-09T05:41:06;32.53;;;24.20;;
15155;SDS011;7678;50.058;8.306;2022-11-09T05:43:35;31.47;;;23.13;;
15155;SDS011;7678;50.058;8.306;2022-11-09T05:46:03;30.23;;;23.70;;
15155;SDS011;7678;50.058;8.306;2022-11-09T05:48:32;34.83;;;24.43;;
15155;SDS011;7678;50.058;8.306;2022-11-09T05:51:05;36.30;;;23.33;;
15155;SDS011;7678;50.058;8.306;2022-11-09T05:53:34;32.70;;;24.00;;
15155;SDS011;7678;50.058;8.306;2022-11-09T05:56:09;31.07;;;23.80;;
15155;SDS011;7678;50.058;8.306;2022-11-09T05:58:40;34.23;;;24.50;;
15155;SDS011;7678;50.058;8.306;2022-11-09T06:01:08;38.03;;;27.37;;
15155;SDS011;7678;50.058;8.306;2022-11-09T06:03:43;42.17;;;27.67;;
15155;SDS011;7678;50.058;8.306;2022-11-09T06:06:12;39.13;;;26.57;;
15155;SDS011;7678;50.058;8.306;2022-11-09T06:08:41;55.90;;;33.47;;
15155;SDS011;7678;50.058;8.306;2022-11-09T06:11:11;49.10;;;33.23;;
15155;SDS011;7678;50.058;8.306;2022-11-09T06:13:50;50.13;;;31.50;;
15155;SDS011;7678;50.058;8.306;2022-11-09T06:16:18;46.67;;;29.93;;
15155;SDS011;7678;50.058;8.306;2022-11-09T06:18:46;39.93;;;26.30;;
15155;SDS011;7678;50.058;8.306;2022-11-09T06:21:14;39.43;;;27.50;;
15155;SDS011;7678;50.058;8.306;2022-11-09T06:23:42;42.10;;;28.67;;
15155;SDS011;7678;50.058;8.306;2022-11-09T06:26:10;40.57;;;28.50;;
15155;SDS011;7678;50.058;8.306;2022-11-09T06:28:39;44.77;;;29.97;;
15155;SDS011;7678;50.058;8.306;2022-11-09T06:31:13;42.50;;;30.83;;
15155;SDS011;7678;50.058;8.306;2022-11-09T06:33:45;48.57;;;30.80;;
15155;SDS011;7678;50.058;8.306;2022-11-09T06:36:13;44.20;;;32.40;;
15155;SDS011;7678;50.058;8.306;2022-11-09T06:38:41;47.97;;;33.17;;
15155;SDS011;7678;50.058;8.306;2022-11-09T06:41:09;46.13;;;31.47;;
15155;SDS011;7678;50.058;8.306;2022-11-09T06:43:37;41.57;;;30.73;;
15155;SDS011;7678;50.058;8.306;2022-11-09T06:46:06;49.73;;;32.17;;
15155;SDS011;7678;50.058;8.306;2022-11-09T06:48:37;48.63;;;33.00;;
15155;SDS011;7678;50.058;8.306;2022-11-09T06:51:05;47.53;;;32.97;;
15155;SDS011;7678;50.058;8.306;2022-11-09T06:53:34;50.37;;;32.37;;
15155;SDS011;7678;50.058;8.306;2022-11-09T06:56:03;45.77;;;32.70;;
15155;SDS011;7678;50.058;8.306;2022-11-09T06:58:32;47.17;;;31.30;;
15155;SDS011;7678;50.058;8.306;2022-11-09T07:01:05;47.97;;;32.57;;
15155;SDS011;7678;50.058;8.306;2022-11-09T07:03:34;42.27;;;30.67;;
15155;SDS011;7678;50.058;8.306;2022-11-09T07:06:05;43.60;;;27.97;;
15155;SDS011;7678;50.058;8.306;2022-11-09T07:08:34;36.57;;;27.93;;
15155;SDS011;7678;50.058;8.306;2022-11-09T07:11:04;39.87;;;30.07;;
15155;SDS011;7678;50.058;8.306;2022-11-09T07:13:33;44.33;;;30.33;;
15155;SDS011;7678;50.058;8.306;2022-11-09T07:16:02;43.60;;;30.47;;
15155;SDS011;7678;50.058;8.306;2022-11-09T07:18:30;44.90;;;31.47;;
15155;SDS011;7678;50.058;8.306;2022-11-09T07:20:58;42.77;;;30.57;;
15155;SDS011;7678;50.058;8.306;2022-11-09T07:23:28;42.50;;;29.50;;
15155;SDS011;7678;50.058;8.306;2022-11-09T07:25:56;39.60;;;28.40;;
15155;SDS011;7678;50.058;8.306;2022-11-09T07:28:25;38.60;;;28.07;;
15155;SDS011;7678;50.058;8.306;2022-11-09T07:30:53;37.40;;;28.33;;
15155;SDS011;7678;50.058;8.306;2022-11-09T07:33:21;43.20;;;27.73;;
15155;SDS011;7678;50.058;8.306;2022-11-09T07:35:50;39.60;;;29.27;;
15155;SDS011;7678;50.058;8.306;2022-11-09T07:38:18;42.07;;;29.43;;
15155;SDS011;7678;50.058;8.306;2022-11-09T07:40:47;36.07;;;28.00;;
15155;SDS011;7678;50.058;8.306;2022-11-09T07:43:15;36.97;;;26.60;;
15155;SDS011;7678;50.058;8.306;2022-11-09T07:45:44;32.17;;;25.57;;
15155;SDS011;7678;50.058;8.306;2022-11-09T07:48:12;34.53;;;24.50;;
15155;SDS011;7678;50.058;8.306;2022-11-09T07:50:40;31.60;;;24.37;;
15155;SDS011;7678;50.058;8.306;2022-11-09T07:53:09;35.60;;;25.57;;
15155;SDS011;7678;50.058;8.306;2022-11-09T07:55:39;33.47;;;24.13;;
15155;SDS011;7678;50.058;8.306;2022-11-09T07:58:11;32.13;;;24.27;;
15155;SDS011;7678;50.058;8.306;2022-11-09T08:00:40;30.70;;;24.10;;
15155;SDS011;7678;50.058;8.306;2022-11-09T08:03:09;36.03;;;24.67;;
15155;SDS011;7678;50.058;8.306;2022-11-09T08:05:37;33.23;;;23.57;;
15155;SDS011;7678;50.058;8.306;2022-11-09T08:08:06;31.13;;;23.27;;
15155;SDS011;7678;50.058;8.306;2022-11-09T08:10:36;31.87;;;23.03;;
15155;SDS011;7678;50.058;8.306;2022-11-09T08:13:06;31.57;;;22.77;;
15155;SDS011;7678;50.058;8.306;2022-11-09T08:15:38;29.23;;;22.83;;
15155;SDS011;7678;50.058;8.306;2022-11-09T08:18:07;33.07;;;22.73;;
15155;SDS011;7678;50.058;8.306;2022-11-09T08:20:38;28.43;;;22.43;;
15155;SDS011;7678;50.058;8.306;2022-11-09T08:23:06;32.03;;;22.50;;
15155;SDS011;7678;50.058;8.306;2022-11-09T08:25:37;25.83;;;21.07;;
15155;SDS011;7678;50.058;8.306;2022-11-09T08:28:05;30.83;;;23.03;;
15155;SDS011;7678;50.058;8.306;2022-11-09T08:30:41;30.03;;;21.87;;
15155;SDS011;7678;50.058;8.306;2022-11-09T08:33:10;26.97;;;21.17;;
15155;SDS011;7678;50.058;8.306;2022-11-09T08:35:38;27.33;;;21.90;;
15155;SDS011;7678;50.058;8.306;2022-11-09T08:38:06;30.83;;;21.93;;
15155;SDS011;7678;50.058;8.306;2022-11-09T08:40:36;33.13;;;23.70;;
15155;SDS011;7678;50.058;8.306;2022-11-09T08:43:04;29.83;;;23.63;;
15155;SDS011;7678;50.058;8.306;2022-11-09T08:45:35;32.80;;;24.17;;
15155;SDS011;7678;50.058;8.306;2022-11-09T08:48:06;29.57;;;22.77;;
15155;SDS011;7678;50.058;8.306;2022-11-09T08:50:35;26.67;;;20.67;;
15155;SDS011;7678;50.058;8.306;2022-11-09T08:53:03;28.37;;;21.43;;
15155;SDS011;7678;50.058;8.306;2022-11-09T08:55:33;27.33;;;20.67;;
15155;SDS011;7678;50.058;8.306;2022-11-09T08:58:01;29.00;;;20.67;;
15155;SDS011;7678;50.058;8.306;2022-11-09T09:00:30;30.40;;;19.47;;
15155;SDS011;7678;50.058;8.306;2022-11-09T09:03:01;27.77;;;19.33;;
15155;SDS011;7678;50.058;8.306;2022-11-09T09:05:31;27.70;;;18.13;;
15155;SDS011;7678;50.058;8.306;2022-11-09T09:08:01;25.43;;;17.40;;
15155;SDS011;7678;50.058;8.306;2022-11-09T09:10:30;24.50;;;15.83;;
15155;SDS011;7678;50.058;8.306;2022-11-09T09:13:00;20.93;;;14.93;;
15155;SDS011;7678;50.058;8.306;2022-11-09T09:15:28;17.30;;;14.17;;
15155;SDS011;7678;50.058;8.306;2022-11-09T09:17:57;20.63;;;13.20;;
15155;SDS011;7678;50.058;8.306;2022-11-09T09:20:26;12.77;;;11.27;;
15155;SDS011;7678;50.058;8.306;2022-11-09T09:22:57;13.10;;;9.17;;
15155;SDS011;7678;50.058;8.306;2022-11-09T09:25:28;11.80;;;8.27;;
15155;SDS011;7678;50.058;8.306;2022-11-09T09:27:56;9.60;;;8.60;;
15155;SDS011;7678;50.058;8.306;2022-11-09T09:30:24;13.60;;;9.30;;
15155;SDS011;7678;50.058;8.306;2022-11-09T09:32:56;11.20;;;8.43;;
15155;SDS011;7678;50.058;8.306;2022-11-09T09:35:24;8.40;;;7.47;;
15155;SDS011;7678;50.058;8.306;2022-11-09T09:37:52;8.93;;;6.97;;
15155;SDS011;7678;50.058;8.306;2022-11-09T09:40:25;8.13;;;5.67;;
15155;SDS011;7678;50.058;8.306;2022-11-09T09:42:57;7.83;;;6.00;;
15155;SDS011;7678;50.058;8.306;2022-11-09T09:45:27;6.00;;;5.27;;
15155;SDS011;7678;50.058;8.306;2022-11-09T09:47:58;6.33;;;5.20;;
15155;SDS011;7678;50.058;8.306;2022-11-09T09:50:30;5.07;;;4.57;;
15155;SDS011;7678;50.058;8.306;2022-11-09T09:53:05;5.47;;;3.80;;
15155;SDS011;7678;50.058;8.306;2022-11-09T09:55:52;4.57;;;3.70;;
15155;SDS011;7678;50.058;8.306;2022-11-09T09:58:23;4.90;;;3.47;;
15155;SDS011;7678;50.058;8.306;2022-11-09T10:00:55;3.80;;;3.20;;
15155;SDS011;7678;50.058;8.306;2022-11-09T10:03:26;5.83;;;3.60;;
15155;SDS011;7678;50.058;8.306;2022-11-09T10:05:55;6.17;;;2.90;;
15155;SDS011;7678;50.058;8.306;2022-11-09T10:08:34;4.53;;;2.77;;
15155;SDS011;7678;50.058;8.306;2022-11-09T10:11:14;4.60;;;2.90;;
15155;SDS011;7678;50.058;8.306;2022-11-09T10:14:16;2.83;;;2.50;;
15155;SDS011;7678;50.058;8.306;2022-11-09T10:16:58;3.93;;;2.53;;
15155;SDS011;7678;50.058;8.306;2022-11-09T10:19:36;5.27;;;2.00;;
15155;SDS011;7678;50.058;8.306;2022-11-09T10:22:14;6.27;;;2.53;;
15155;SDS011;7678;50.058;8.306;2022-11-09T10:24:51;3.73;;;2.10;;
15155;SDS011;7678;50.058;8.306;2022-11-09T10:27:46;2.47;;;2.27;;
15155;SDS011;7678;50.058;8.306;2022-11-09T10:30:18;9.47;;;2.43;;
15155;SDS011;7678;50.058;8.306;2022-11-09T10:32:49;6.10;;;1.93;;
15155;SDS011;7678;50.058;8.306;2022-11-09T10:35:21;3.70;;;2.03;;
15155;SDS011;7678;50.058;8.306;2022-11-09T10:37:58;5.17;;;2.33;;
15155;SDS011;7678;50.058;8.306;2022-11-09T10:40:27;6.97;;;2.20;;
15155;SDS011;7678;50.058;8.306;2022-11-09T10:43:01;5.40;;;2.27;;
15155;SDS011;7678;50.058;8.306;2022-11-09T10:45:36;4.33;;;1.83;;
15155;SDS011;7678;50.058;8.306;2022-11-09T10:48:11;3.13;;;1.73;;
15155;SDS011;7678;50.058;8.306;2022-11-09T10:50:41;4.70;;;1.73;;
15155;SDS011;7678;50.058;8.306;2022-11-09T10:53:14;4.03;;;1.90;;
15155;SDS011;7678;50.058;8.306;2022-11-09T10:55:48;3.10;;;1.87;;
15155;SDS011;7678;50.058;8.306;2022-11-09T10:58:24;3.67;;;1.77;;
15155;SDS011;7678;50.058;8.306;2022-11-09T11:01:00;2.70;;;1.73;;
15155;SDS011;7678;50.058;8.306;2022-11-09T11:03:31;3.87;;;1.63;;
15155;SDS011;7678;50.058;8.306;2022-11-09T11:06:03;4.30;;;1.60;;
15155;SDS011;7678;50.058;8.306;2022-11-09T11:08:36;4.97;;;1.80;;
15155;SDS011;7678;50.058;8.306;2022-11-09T11:11:07;3.00;;;1.37;;
15155;SDS011;7678;50.058;8.306;2022-11-09T11:14:09;4.33;;;1.63;;
15155;SDS011;7678;50.058;8.306;2022-11-09T11:16:47;5.27;;;1.13;;
15155;SDS011;7678;50.058;8.306;2022-11-09T11:19:24;4.83;;;1.23;;
15155;SDS011;7678;50.058;8.306;2022-11-09T11:22:07;1.93;;;1.27;;
15155;SDS011;7678;50.058;8.306;2022-11-09T11:24:44;3.03;;;1.30;;
15155;SDS011;7678;50.058;8.306;2022-11-09T11:27:20;3.37;;;1.17;;
15155;SDS011;7678;50.058;8.306;2022-11-09T11:29:53;3.47;;;1.20;;
15155;SDS011;7678;50.058;8.306;2022-11-09T11:32:25;4.53;;;1.60;;
15155;SDS011;7678;50.058;8.306;2022-11-09T11:34:53;2.37;;;1.27;;
15155;SDS011;7678;50.058;8.306;2022-11-09T11:37:30;4.57;;;0.97;;
15155;SDS011;7678;50.058;8.306;2022-11-09T11:40:11;5.03;;;1.00;;
15155;SDS011;7678;50.058;8.306;2022-11-09T11:42:52;3.00;;;1.03;;
15155;SDS011;7678;50.058;8.306;2022-11-09T11:45:34;18.10;;;1.60;;
15155;SDS011;7678;50.058;8.306;2022-11-09T11:48:12;2.23;;;1.17;;
15155;SDS011;7678;50.058;8.306;2022-11-09T11:51:10;4.03;;;1.40;;
15155;SDS011;7678;50.058;8.306;2022-11-09T11:53:49;2.63;;;1.20;;
15155;SDS011;7678;50.058;8.306;2022-11-09T11:56:30;2.00;;;1.00;;
15155;SDS011;7678;50.058;8.306;2022-11-09T11:59:06;3.37;;;1.20;;
15155;SDS011;7678;50.058;8.306;2022-11-09T12:02:02;3.53;;;1.07;;
15155;SDS011;7678;50.058;8.306;2022-11-09T12:04:55;4.93;;;1.10;;
15155;SDS011;7678;50.058;8.306;2022-11-09T12:07:50;3.23;;;1.20;;
15155;SDS011;7678;50.058;8.306;2022-11-09T12:10:27;3.37;;;1.50;;
15155;SDS011;7678;50.058;8.306;2022-11-09T12:13:09;1.23;;;0.80;;
15155;SDS011;7678;50.058;8.306;2022-11-09T12:15:58;4.77;;;1.83;;
15155;SDS011;7678;50.058;8.306;2022-11-09T12:18:38;2.97;;;1.03;;
15155;SDS011;7678;50.058;8.306;2022-11-09T12:21:30;2.13;;;1.10;;
15155;SDS011;7678;50.058;8.306;2022-11-09T12:24:07;3.73;;;1.20;;
15155;SDS011;7678;50.058;8.306;2022-11-09T12:26:50;3.60;;;1.40;;
15155;SDS011;7678;50.058;8.306;2022-11-09T12:29:52;2.83;;;1.20;;
15155;SDS011;7678;50.058;8.306;2022-11-09T12:32:26;4.70;;;1.37;;
15155;SDS011;7678;50.058;8.306;2022-11-09T12:35:11;3.53;;;1.33;;
15155;SDS011;7678;50.058;8.306;2022-11-09T12:37:47;3.37;;;1.30;;
15155;SDS011;7678;50.058;8.306;2022-11-09T12:40:21;5.33;;;1.27;;
15155;SDS011;7678;50.058;8.306;2022-11-09T12:42:55;3.57;;;1.33;;
15155;SDS011;7678;50.058;8.306;2022-11-09T12:45:27;3.70;;;1.13;;
15155;SDS011;7678;50.058;8.306;2022-11-09T12:47:59;3.93;;;1.20;;
15155;SDS011;7678;50.058;8.306;2022-11-09T12:50:33;6.07;;;1.30;;
15155;SDS011;7678;50.058;8.306;2022-11-09T12:53:03;5.17;;;1.43;;
15155;SDS011;7678;50.058;8.306;2022-11-09T12:55:36;3.33;;;1.20;;
15155;SDS011;7678;50.058;8.306;2022-11-09T12:58:20;2.13;;;1.00;;
15155;SDS011;7678;50.058;8.306;2022-11-09T13:00:51;2.77;;;1.23;;
15155;SDS011;7678;50.058;8.306;2022-11-09T13:03:22;3.23;;;1.33;;
15155;SDS011;7678;50.058;8.306;2022-11-09T13:06:10;3.00;;;1.10;;
15155;SDS011;7678;50.058;8.306;2022-11-09T13:08:46;5.00;;;1.73;;
15155;SDS011;7678;50.058;8.306;2022-11-09T13:11:33;3.80;;;1.17;;
15155;SDS011;7678;50.058;8.306;2022-11-09T13:23:25;2.77;;;1.40;;
15155;SDS011;7678;50.058;8.306;2022-11-09T13:26:23;4.73;;;1.30;;
15155;SDS011;7678;50.058;8.306;2022-11-09T13:29:19;5.97;;;1.50;;
15155;SDS011;7678;50.058;8.306;2022-11-09T13:34:58;4.97;;;1.50;;
15155;SDS011;7678;50.058;8.306;2022-11-09T13:37:43;4.17;;;1.50;;
15155;SDS011;7678;50.058;8.306;2022-11-09T13:43:20;4.00;;;1.60;;
15155;SDS011;7678;50.058;8.306;2022-11-09T13:45:53;4.00;;;1.60;;
15155;SDS011;7678;50.058;8.306;2022-11-09T13:48:33;5.23;;;1.40;;
15155;SDS011;7678;50.058;8.306;2022-11-09T13:51:07;6.57;;;1.80;;
15155;SDS011;7678;50.058;8.306;2022-11-09T13:53:50;4.53;;;1.33;;
15155;SDS011;7678;50.058;8.306;2022-11-09T13:56:27;4.90;;;1.83;;
15155;SDS011;7678;50.058;8.306;2022-11-09T13:59:03;8.43;;;2.30;;
15155;SDS011;7678;50.058;8.306;2022-11-09T14:01:45;3.90;;;2.00;;
15155;SDS011;7678;50.058;8.306;2022-11-09T14:04:19;4.30;;;1.60;;
15155;SDS011;7678;50.058;8.306;2022-11-09T14:06:54;7.20;;;1.97;;
15155;SDS011;7678;50.058;8.306;2022-11-09T14:09:30;4.13;;;1.30;;
15155;SDS011;7678;50.058;8.306;2022-11-09T14:17:35;6.33;;;2.33;;
15155;SDS011;7678;50.058;8.306;2022-11-09T14:20:10;8.03;;;2.17;;
15155;SDS011;7678;50.058;8.306;2022-11-09T14:22:49;7.17;;;1.83;;
15155;SDS011;7678;50.058;8.306;2022-11-09T14:25:18;6.67;;;2.50;;
15155;SDS011;7678;50.058;8.306;2022-11-09T14:27:49;4.80;;;2.33;;
15155;SDS011;7678;50.058;8.306;2022-11-09T14:30:23;5.43;;;1.63;;
15155;SDS011;7678;50.058;8.306;2022-11-09T14:32:54;5.53;;;1.80;;
15155;SDS011;7678;50.058;8.306;2022-11-09T14:35:25;3.43;;;1.50;;
15155;SDS011;7678;50.058;8.306;2022-11-09T14:37:56;6.00;;;1.67;;
15155;SDS011;7678;50.058;8.306;2022-11-09T14:40:26;6.83;;;1.50;;
15155;SDS011;7678;50.058;8.306;2022-11-09T14:42:57;4.67;;;1.60;;
15155;SDS011;7678;50.058;8.306;2022-11-09T14:45:27;5.37;;;2.03;;
15155;SDS011;7678;50.058;8.306;2022-11-09T14:47:57;4.23;;;1.60;;
15155;SDS011;7678;50.058;8.306;2022-11-09T14:50:27;5.63;;;1.50;;
15155;SDS011;7678;50.058;8.306;2022-11-09T14:52:59;4.93;;;1.80;;
15155;SDS011;7678;50.058;8.306;2022-11-09T14:55:31;3.30;;;1.63;;
15155;SDS011;7678;50.058;8.306;2022-11-09T14:58:01;7.70;;;2.23;;
15155;SDS011;7678;50.058;8.306;2022-11-09T15:00:30;6.20;;;2.33;;
15155;SDS011;7678;50.058;8.306;2022-11-09T15:03:20;4.77;;;1.93;;
15155;SDS011;7678;50.058;8.306;2022-11-09T15:05:50;5.03;;;1.70;;
15155;SDS011;7678;50.058;8.306;2022-11-09T15:08:30;5.30;;;1.40;;
15155;SDS011;7678;50.058;8.306;2022-11-09T15:10:58;5.70;;;1.80;;
15155;SDS011;7678;50.058;8.306;2022-11-09T15:13:28;6.63;;;2.00;;
15155;SDS011;7678;50.058;8.306;2022-11-09T15:15:58;5.70;;;1.97;;
15155;SDS011;7678;50.058;8.306;2022-11-09T15:18:28;5.10;;;2.27;;
15155;SDS011;7678;50.058;8.306;2022-11-09T15:21:11;6.27;;;2.00;;
15155;SDS011;7678;50.058;8.306;2022-11-09T15:23:42;6.33;;;1.63;;
15155;SDS011;7678;50.058;8.306;2022-11-09T15:26:32;5.63;;;1.80;;
15155;SDS011;7678;50.058;8.306;2022-11-09T15:29:02;8.13;;;1.50;;
15155;SDS011;7678;50.058;8.306;2022-11-09T15:32:13;6.20;;;1.90;;
15155;SDS011;7678;50.058;8.306;2022-11-09T15:34:53;5.30;;;1.83;;
15155;SDS011;7678;50.058;8.306;2022-11-09T15:37:24;6.10;;;1.67;;
15155;SDS011;7678;50.058;8.306;2022-11-09T15:39:55;4.17;;;1.60;;